createdAt,value
2018-10-19T00:00:18.950Z,8.5
2018-10-19T00:02:19.591Z,2.3
2018-10-19T00:04:19.373Z,3.8
2018-10-19T00:06:19.361Z,2.5
2018-10-19T00:08:19.122Z,8.9
2018-10-19T00:10:19.445Z,7.9
2018-10-19T00:12:19.220Z,3
2018-10-19T00:14:18.995Z,7.6
2018-10-19T00:16:19.344Z,3.8
2018-10-19T00:18:19.232Z,3.3
2018-10-19T00:20:19.040Z,4.4
2018-10-19T00:22:18.826Z,0.8
2018-10-19T00:24:19.615Z,7.6
2018-10-19T00:26:19.202Z,3.6
2018-10-19T00:28:18.981Z,2.5
2018-10-19T00:30:18.770Z,2.4
2018-10-19T00:32:19.603Z,6.6
2018-10-19T00:34:19.384Z,6.2
2018-10-19T00:36:19.263Z,8.6
2018-10-19T00:38:19.053Z,4.8
2018-10-19T00:40:19.325Z,9.6
2018-10-19T00:42:19.111Z,7
2018-10-19T00:44:18.893Z,6.7
2018-10-19T00:46:18.809Z,6.7
2018-10-19T00:48:19.611Z,4.9
2018-10-19T00:50:19.506Z,10.9
2018-10-19T00:52:19.314Z,1.5
2018-10-19T00:54:19.117Z,4.9
2018-10-19T00:56:19.252Z,3.9
2018-10-19T00:58:19.012Z,4.7
2018-10-19T01:00:18.796Z,7.5
2018-10-19T01:02:19.614Z,6.6
2018-10-19T01:04:19.416Z,7.2
2018-10-19T01:06:18.762Z,5
2018-10-19T01:08:19.571Z,7.2
2018-10-19T01:10:18.845Z,3.8
2018-10-19T01:12:19.620Z,1.6
2018-10-19T01:14:19.429Z,4
2018-10-19T01:16:18.827Z,2.8
2018-10-19T01:18:19.700Z,5.5
2018-10-19T01:20:19.500Z,5.9
2018-10-19T01:22:19.615Z,7.1
2018-10-19T01:24:19.395Z,5.3
2018-10-19T01:26:19.468Z,3.8
2018-10-19T01:28:19.244Z,5.3
2018-10-19T01:30:19.055Z,2.1
2018-10-19T01:32:18.862Z,12.6
2018-10-19T01:34:19.642Z,6.7
2018-10-19T01:36:18.917Z,1.9
2018-10-19T01:38:19.681Z,5.8
2018-10-19T01:40:18.934Z,3.1
2018-10-19T01:42:19.066Z,3.2
2018-10-19T01:44:18.842Z,8.4
2018-10-19T01:46:19.261Z,3.1
2018-10-19T01:48:19.035Z,4.5
2018-10-19T01:50:18.894Z,7.6
2018-10-19T01:52:19.673Z,1.7
2018-10-19T01:54:19.446Z,9.9
2018-10-19T01:56:18.839Z,1.7
2018-10-19T01:58:19.596Z,5.2
2018-10-19T02:00:19.391Z,6.1
2018-10-19T02:02:19.191Z,0.5
2018-10-19T02:04:19.006Z,5.3
2018-10-19T02:06:19.434Z,7
2018-10-19T02:08:19.249Z,5.1
2018-10-19T02:10:19.496Z,2.5
2018-10-19T02:12:18.999Z,5.5
2018-10-19T02:14:18.768Z,14
2018-10-19T02:16:19.385Z,10.6
2018-10-19T02:18:19.274Z,0.9
2018-10-19T02:20:19.152Z,6.7
2018-10-19T02:22:18.928Z,2.1
2018-10-19T02:24:19.759Z,3.8
2018-10-19T02:26:19.529Z,2.2
2018-10-19T02:28:19.316Z,12.2
2018-10-19T02:30:19.160Z,8.4
2018-10-19T02:32:18.948Z,5.8
2018-10-19T02:34:18.735Z,1
2018-10-19T02:36:19.535Z,3
2018-10-19T02:38:19.329Z,1.6
2018-10-19T02:40:19.629Z,7.1
2018-10-19T02:42:19.382Z,3.8
2018-10-19T02:44:19.169Z,3.2
2018-10-19T02:46:18.816Z,1.7
2018-10-19T02:48:19.593Z,0.8
2018-10-19T02:50:19.380Z,6.9
2018-10-19T02:52:19.141Z,8.3
2018-10-19T02:54:18.908Z,4.2
2018-10-19T02:56:19.141Z,5.7
2018-10-19T02:58:18.899Z,12.5
2018-10-19T03:00:19.676Z,7.1
2018-10-19T03:02:19.470Z,4
2018-10-19T03:04:19.266Z,6.2
2018-10-19T03:06:19.554Z,2.7
2018-10-19T03:08:19.319Z,4.1
2018-10-19T03:10:19.642Z,6.1
2018-10-19T03:12:19.441Z,1.2
2018-10-19T03:14:19.222Z,5.2
2018-10-19T03:16:19.077Z,5.7
2018-10-19T03:18:18.932Z,5.6
2018-10-19T03:20:19.711Z,7.7
2018-10-19T03:22:19.480Z,4.1
2018-10-19T03:24:19.262Z,5.1
2018-10-19T03:26:18.830Z,0.4
2018-10-19T03:28:19.588Z,5.4
2018-10-19T03:30:19.378Z,2.1
2018-10-19T03:32:19.103Z,5
2018-10-19T03:34:18.878Z,5.1
2018-10-19T03:36:19.169Z,4.1
2018-10-19T03:38:18.923Z,2.8
2018-10-19T03:40:19.213Z,6.4
2018-10-19T03:42:18.987Z,0.9
2018-10-19T03:44:18.784Z,3.8
2018-10-19T03:46:19.642Z,5.5
2018-10-19T03:48:19.421Z,6.3
2018-10-19T03:50:19.222Z,4.3
2018-10-19T03:52:18.754Z,1
2018-10-19T03:54:19.531Z,3.9
2018-10-19T03:56:18.803Z,1.7
2018-10-19T03:58:19.592Z,5.5
2018-10-19T04:00:19.404Z,4.8
2018-10-19T04:02:19.206Z,3.2
2018-10-19T04:04:18.963Z,11
2018-10-19T04:06:19.230Z,4.3
2018-10-19T04:08:18.991Z,15
2018-10-19T04:10:19.230Z,6.4
2018-10-19T04:12:18.994Z,2.4
2018-10-19T04:14:18.783Z,3.5
2018-10-19T04:16:19.656Z,1.4
2018-10-19T04:18:19.496Z,2.2
2018-10-19T04:20:19.265Z,3.4
2018-10-19T04:22:19.061Z,7.6
2018-10-19T04:24:18.881Z,2.5
2018-10-19T04:26:19.479Z,9.2
2018-10-19T04:28:19.247Z,5.5
2018-10-19T04:30:19.029Z,1.4
2018-10-19T04:32:18.799Z,8.5
2018-10-19T04:34:19.581Z,3.3
2018-10-19T04:36:19.424Z,0.3
2018-10-19T04:38:19.239Z,6.6
2018-10-19T04:40:19.563Z,3.2
2018-10-19T04:42:19.593Z,3.1
2018-10-19T04:44:19.373Z,3.4
2018-10-19T04:46:19.688Z,3.4
2018-10-19T04:48:19.447Z,4.7
2018-10-19T04:50:19.217Z,7.8
2018-10-19T04:52:19.009Z,4
2018-10-19T04:54:18.771Z,3.2
2018-10-19T04:56:18.900Z,8.6
2018-10-19T04:58:19.674Z,3.6
2018-10-19T05:00:19.591Z,3.8
2018-10-19T05:02:19.458Z,2.6
2018-10-19T05:04:19.242Z,10.6
2018-10-19T05:06:19.346Z,11.2
2018-10-19T05:08:19.446Z,3.4
2018-10-19T05:10:18.747Z,5.6
2018-10-19T05:12:19.603Z,0.8
2018-10-19T05:14:19.740Z,6.6
2018-10-19T05:16:19.394Z,5.5
2018-10-19T05:18:19.285Z,14.8
2018-10-19T05:20:19.278Z,4.4
2018-10-19T05:22:19.052Z,2.2
2018-10-19T05:24:18.830Z,5.3
2018-10-19T05:26:19.407Z,10.5
2018-10-19T05:28:19.226Z,3.3
2018-10-19T05:30:19.009Z,2.2
2018-10-19T05:32:19.684Z,7.1
2018-10-19T05:34:19.457Z,3.2
2018-10-19T05:36:19.206Z,7.3
2018-10-19T05:38:18.972Z,6
2018-10-19T05:40:19.283Z,6.3
2018-10-19T05:42:19.072Z,11.9
2018-10-19T05:44:18.850Z,9.4
2018-10-19T05:46:19.042Z,12.2
2018-10-19T05:48:18.804Z,4.8
2018-10-19T05:50:19.609Z,12.7
2018-10-19T05:52:19.361Z,12.7
2018-10-19T05:54:19.149Z,6.7
2018-10-19T05:56:19.132Z,4.7
2018-10-19T05:58:18.896Z,5.2
2018-10-19T06:00:19.679Z,4.4
2018-10-19T06:02:19.757Z,8.4
2018-10-19T06:04:19.693Z,3
2018-10-19T06:06:19.455Z,5.7
2018-10-19T06:08:19.210Z,11.9
2018-10-19T06:10:19.531Z,5.1
2018-10-19T06:12:19.303Z,11.7
2018-10-19T06:14:19.106Z,6.3
2018-10-19T06:16:19.602Z,4.1
2018-10-19T06:18:19.453Z,3.9
2018-10-19T06:20:19.248Z,2.8
2018-10-19T06:22:19.041Z,3
2018-10-19T06:24:18.826Z,4.2
2018-10-19T06:26:19.157Z,6
2018-10-19T06:28:18.970Z,10.2
2018-10-19T06:30:18.756Z,4.2
2018-10-19T06:32:19.507Z,4.5
2018-10-19T06:34:19.289Z,2.3
2018-10-19T06:36:19.020Z,1.5
2018-10-19T06:38:18.794Z,8.9
2018-10-19T06:40:19.038Z,5.9
2018-10-19T06:42:18.792Z,3.5
2018-10-19T06:44:19.584Z,5.7
2018-10-19T06:46:18.835Z,4.3
2018-10-19T06:48:19.594Z,4.8
2018-10-19T06:50:19.711Z,4.6
2018-10-19T06:52:19.547Z,2.9
2018-10-19T06:54:19.339Z,2.9
2018-10-19T06:56:19.535Z,3.8
2018-10-19T06:58:19.321Z,1.6
2018-10-19T07:00:19.076Z,4.6
2018-10-19T07:02:18.857Z,4.4
2018-10-19T07:04:19.626Z,6.1
2018-10-19T07:06:19.293Z,6.5
2018-10-19T07:08:19.248Z,8.8
2018-10-19T07:10:19.560Z,5.2
2018-10-19T07:12:19.617Z,7.8
2018-10-19T07:14:19.431Z,3.6
2018-10-19T07:16:18.960Z,9.1
2018-10-19T07:18:18.817Z,3.7
2018-10-19T07:20:19.603Z,8.3
2018-10-19T07:22:19.399Z,6.5
2018-10-19T07:24:19.193Z,3.2
2018-10-19T07:26:19.095Z,2.4
2018-10-19T07:28:18.885Z,2.3
2018-10-19T07:30:19.752Z,3.1
2018-10-19T07:32:19.520Z,4.2
2018-10-19T07:34:19.277Z,14.5
2018-10-19T07:36:19.042Z,2.4
2018-10-19T07:38:18.867Z,4.7
2018-10-19T07:40:19.169Z,2.1
2018-10-19T07:42:19.295Z,2
2018-10-19T07:44:19.243Z,7.7
2018-10-19T07:46:18.802Z,4.2
2018-10-19T07:48:19.680Z,5
2018-10-19T07:50:19.564Z,2.4
2018-10-19T07:52:19.351Z,4.5
2018-10-19T07:54:19.172Z,5.9
2018-10-19T07:56:19.419Z,2.3
2018-10-19T07:58:19.214Z,3.2
2018-10-19T08:00:19.267Z,8.3
2018-10-19T08:02:19.071Z,0.8
2018-10-19T08:04:18.822Z,1
2018-10-19T08:06:19.556Z,3.6
2018-10-19T08:08:19.329Z,8.5
2018-10-19T08:10:19.619Z,6.5
2018-10-19T08:12:19.419Z,13
2018-10-19T08:14:19.203Z,6.8
2018-10-19T08:16:19.669Z,10.1
2018-10-19T08:18:19.596Z,4.8
2018-10-19T08:20:19.416Z,4.1
2018-10-19T08:22:19.212Z,4.6
2018-10-19T08:24:18.990Z,3.7
2018-10-19T08:26:19.131Z,2.5
2018-10-19T08:28:18.917Z,7.3
2018-10-19T08:30:19.698Z,8.8
2018-10-19T08:32:19.467Z,0.9
2018-10-19T08:34:19.229Z,4.8
2018-10-19T08:36:18.968Z,3.2
2018-10-19T08:38:18.783Z,8.1
2018-10-19T08:40:19.050Z,5.4
2018-10-19T08:42:18.811Z,5.1
2018-10-19T08:44:19.570Z,9.9
2018-10-19T08:46:19.334Z,1.9
2018-10-19T08:48:19.088Z,3.6
2018-10-19T08:50:18.865Z,3
2018-10-19T08:52:19.541Z,7.9
2018-10-19T08:54:19.329Z,4.1
2018-10-19T08:56:19.574Z,6.6
2018-10-19T08:58:19.561Z,0.5
2018-10-19T09:00:19.589Z,3.4
2018-10-19T09:02:19.519Z,3.6
2018-10-19T09:04:19.303Z,4.2
2018-10-19T09:06:19.091Z,1.2
2018-10-19T09:08:18.883Z,5.6
2018-10-19T09:10:19.180Z,13.2
2018-10-19T09:12:19.007Z,6.1
2018-10-19T09:14:18.774Z,1.2
2018-10-19T09:16:19.463Z,1
2018-10-19T09:18:19.430Z,4.8
2018-10-19T09:20:19.457Z,0.5
2018-10-19T09:22:19.229Z,5.2
2018-10-19T09:24:19.014Z,1.7
2018-10-19T09:26:19.096Z,4.5
2018-10-19T09:28:18.885Z,7.4
2018-10-19T09:30:19.656Z,1.3
2018-10-19T09:32:19.430Z,1.9
2018-10-19T09:34:19.216Z,7.5
2018-10-19T09:36:20.032Z,8.5
2018-10-19T09:38:18.962Z,6.2
2018-10-19T09:40:19.449Z,5.4
2018-10-19T09:42:19.317Z,5.8
2018-10-19T09:44:19.114Z,3.4
2018-10-19T09:46:19.325Z,3.2
2018-10-19T09:48:19.142Z,1.7
2018-10-19T09:50:18.915Z,5.5
2018-10-19T09:52:19.697Z,2.3
2018-10-19T09:54:19.502Z,8.8
2018-10-19T09:56:19.759Z,4.7
2018-10-19T09:58:19.650Z,7.8
2018-10-19T10:00:19.487Z,5.5
2018-10-19T10:02:19.249Z,7.2
2018-10-19T10:04:19.058Z,2.2
2018-10-19T10:06:19.595Z,2.6
2018-10-19T10:08:19.404Z,4
2018-10-19T10:10:19.666Z,2.8
2018-10-19T10:12:19.466Z,10.3
2018-10-19T10:14:19.246Z,2.7
2018-10-19T10:16:19.389Z,3.4
2018-10-19T10:18:19.246Z,4.5
2018-10-19T10:20:19.171Z,8.4
2018-10-19T10:22:19.690Z,4.3
2018-10-19T10:24:19.473Z,7.8
2018-10-19T10:26:18.843Z,5.8
2018-10-19T10:28:19.650Z,4.9
2018-10-19T10:30:19.567Z,2.1
2018-10-19T10:32:19.534Z,1
2018-10-19T10:34:19.338Z,13.6
2018-10-19T10:36:18.778Z,10.6
2018-10-19T10:38:19.556Z,2.5
2018-10-19T10:40:19.017Z,4.8
2018-10-19T10:42:18.881Z,2.3
2018-10-19T10:44:19.654Z,4.5
2018-10-19T10:46:19.397Z,7.5
2018-10-19T10:48:19.180Z,9.4
2018-10-19T10:50:18.963Z,2.9
2018-10-19T10:52:18.745Z,1.8
2018-10-19T10:54:19.528Z,1.3
2018-10-19T10:56:18.777Z,2
2018-10-19T10:58:19.567Z,6.1
2018-10-19T11:00:19.333Z,4.5
2018-10-19T11:02:19.126Z,3.4
2018-10-19T11:04:18.905Z,8.2
2018-10-19T11:06:19.027Z,1
2018-10-19T11:08:18.796Z,2
2018-10-19T11:10:19.092Z,5.5
2018-10-19T11:12:19.171Z,2.6
2018-10-19T11:14:18.980Z,4.2
2018-10-19T11:16:19.295Z,3.6
2018-10-19T11:18:19.162Z,4.7
2018-10-19T11:20:19.062Z,9.1
2018-10-19T11:22:18.840Z,18
2018-10-19T11:24:19.643Z,4.1
2018-10-19T11:26:18.907Z,1
2018-10-19T11:28:19.715Z,8
2018-10-19T11:30:19.512Z,2.6
2018-10-19T11:32:19.195Z,0.6
2018-10-19T11:34:18.968Z,9.3
2018-10-19T11:36:19.081Z,6.7
2018-10-19T11:38:18.878Z,0.3
2018-10-19T11:40:19.154Z,1.7
2018-10-19T11:42:18.925Z,2.3
2018-10-19T11:44:19.700Z,2.7
2018-10-19T11:46:18.822Z,2.8
2018-10-19T11:48:19.620Z,1.7
2018-10-19T11:50:19.480Z,6.2
2018-10-19T11:52:19.246Z,0.7
2018-10-19T11:54:19.036Z,2.3
2018-10-19T11:56:19.440Z,1.2
2018-10-19T11:58:19.495Z,4.3
2018-10-19T12:00:19.292Z,2.6
2018-10-19T12:02:19.059Z,0.6
2018-10-19T12:04:18.832Z,5.5
2018-10-19T12:06:19.386Z,6.2
2018-10-19T12:08:19.166Z,5.6
2018-10-19T12:10:19.430Z,3.4
2018-10-19T12:12:19.196Z,4.8
2018-10-19T12:14:18.991Z,8.4
2018-10-19T12:16:19.451Z,3.7
2018-10-19T12:18:19.393Z,6.1
2018-10-19T12:20:18.252Z,1
2018-10-19T12:22:19.051Z,3.5
2018-10-19T12:24:18.853Z,4
2018-10-19T12:26:19.164Z,1.8
2018-10-19T12:28:18.943Z,0.4
2018-10-19T12:30:18.767Z,1.1
2018-10-19T12:32:19.549Z,6.6
2018-10-19T12:34:19.350Z,1
2018-10-19T12:36:19.454Z,2.2
2018-10-19T12:38:19.251Z,8.2
2018-10-19T12:40:19.511Z,3.5
2018-10-19T12:42:19.313Z,8.8
2018-10-19T12:44:19.105Z,8
2018-10-19T12:46:19.615Z,3.1
2018-10-19T12:48:19.406Z,5.7
2018-10-19T12:50:18.189Z,2.1
2018-10-19T12:52:18.960Z,1.5
2018-10-19T12:54:19.021Z,2
2018-10-19T12:56:18.880Z,3.2
2018-10-19T12:58:19.665Z,0.8
2018-10-19T13:00:18.457Z,5
2018-10-19T13:02:18.490Z,5.1
2018-10-19T13:04:19.275Z,1.8
2018-10-19T13:06:18.838Z,7.6
2018-10-19T13:08:18.633Z,4
2018-10-19T13:10:17.936Z,2.2
2018-10-19T13:12:17.758Z,2.7
2018-10-19T13:14:18.561Z,7.3
2018-10-19T13:16:18.558Z,2.2
2018-10-19T13:18:18.490Z,5.9
2018-10-19T13:20:18.294Z,9.8
2018-10-19T13:22:18.134Z,6
2018-10-19T13:24:18.076Z,4.5
2018-10-19T13:26:18.020Z,7.9
2018-10-19T13:28:17.805Z,3
2018-10-19T13:30:18.578Z,2
2018-10-19T13:32:18.374Z,6.2
2018-10-19T13:34:18.295Z,2.9
2018-10-19T13:36:18.570Z,0.9
2018-10-19T13:38:18.353Z,7.4
2018-10-19T13:40:18.773Z,9.7
2018-10-19T13:42:18.554Z,10.9
2018-10-19T13:44:18.393Z,0.4
2018-10-19T13:46:18.653Z,3.6
2018-10-19T13:48:18.448Z,6.8
2018-10-19T13:50:18.247Z,1.4
2018-10-19T13:52:18.111Z,5.4
2018-10-19T13:54:17.892Z,4.3
2018-10-19T13:56:18.477Z,4.1
2018-10-19T13:58:18.404Z,6.5
2018-10-19T14:00:18.241Z,2.8
2018-10-19T14:02:18.061Z,7.5
2018-10-19T14:04:17.850Z,4.7
2018-10-19T14:06:18.672Z,16.3
2018-10-19T14:08:18.478Z,4.1
2018-10-19T14:10:17.749Z,2.7
2018-10-19T14:12:18.567Z,3.9
2018-10-19T14:14:18.378Z,7.4
2018-10-19T14:16:18.133Z,2.7
2018-10-19T14:18:18.018Z,11.6
2018-10-19T14:20:17.800Z,2.9
2018-10-19T14:22:18.600Z,1.4
2018-10-19T14:24:18.412Z,5.6
2018-10-19T14:26:18.114Z,6
2018-10-19T14:28:17.937Z,4
2018-10-19T14:30:17.818Z,2.5
2018-10-19T14:32:19.607Z,6
2018-10-19T14:34:18.429Z,2.6
2018-10-19T14:36:18.232Z,5.6
2018-10-19T14:38:18.049Z,10
2018-10-19T14:40:18.422Z,8.1
2018-10-19T14:42:18.201Z,6
2018-10-19T14:44:19.023Z,6.5
2018-10-19T14:46:18.709Z,2.1
2018-10-19T14:48:18.553Z,3.1
2018-10-19T14:50:18.333Z,4.1
2018-10-19T14:52:18.132Z,6.7
2018-10-19T14:54:18.913Z,5.1
2018-10-19T14:56:18.480Z,8
2018-10-19T14:58:18.301Z,16.6
2018-10-19T15:00:18.107Z,1.5
2018-10-19T15:02:17.914Z,5.2
2018-10-19T15:04:19.707Z,0.4
2018-10-19T15:06:19.071Z,4.7
2018-10-19T15:08:17.874Z,5
2018-10-19T15:10:19.910Z,6.8
2018-10-19T15:12:17.868Z,5.1
2018-10-19T15:14:18.676Z,8.9
2018-10-19T15:16:18.944Z,3.6
2018-10-19T15:18:18.037Z,6
2018-10-19T15:20:17.826Z,2.7
2018-10-19T15:22:18.610Z,3.9
2018-10-19T15:24:18.402Z,1.2
2018-10-19T15:26:18.494Z,22.7
2018-10-19T15:28:19.313Z,5.2
2018-10-19T15:30:18.431Z,5.8
2018-10-19T15:32:19.286Z,6.5
2018-10-19T15:34:19.073Z,2.1
2018-10-19T15:36:19.737Z,3.4
2018-10-19T15:38:18.544Z,4.4
2018-10-19T15:40:17.961Z,3.8
2018-10-19T15:42:18.749Z,2.7
2018-10-19T15:44:18.563Z,10.9
2018-10-19T15:46:19.393Z,3.8
2018-10-19T15:48:19.178Z,2.4
2018-10-19T15:50:17.976Z,16.4
2018-10-19T15:52:18.779Z,3.4
2018-10-19T15:54:19.616Z,4.9
2018-10-19T15:56:19.507Z,5.1
2018-10-19T15:58:19.319Z,5.6
2018-10-19T16:00:19.565Z,5.1
2018-10-19T16:02:18.569Z,6.4
2018-10-19T16:04:19.402Z,9.1
2018-10-19T16:06:19.522Z,2.8
2018-10-19T16:08:19.333Z,2.8
2018-10-19T16:10:19.756Z,4.9
2018-10-19T16:12:19.597Z,1.9
2018-10-19T16:14:19.395Z,7.6
2018-10-19T16:16:19.175Z,3.1
2018-10-19T16:18:19.048Z,3.7
2018-10-19T16:20:18.830Z,11.2
2018-10-19T16:22:19.613Z,4
2018-10-19T16:24:19.391Z,3.3
2018-10-19T16:26:19.034Z,5.8
2018-10-19T16:28:18.936Z,3.7
2018-10-19T16:30:18.769Z,3.4
2018-10-19T16:32:19.547Z,6.5
2018-10-19T16:34:19.332Z,4
2018-10-19T16:36:19.479Z,6.6
2018-10-19T16:38:19.256Z,3.3
2018-10-19T16:40:19.591Z,6.3
2018-10-19T16:42:19.378Z,5.8
2018-10-19T16:44:19.167Z,9.3
2018-10-19T16:46:19.311Z,10.7
2018-10-19T16:48:19.147Z,4.6
2018-10-19T16:50:18.984Z,5.1
2018-10-19T16:52:18.977Z,3.3
2018-10-19T16:54:18.958Z,9.2
2018-10-19T16:56:19.519Z,6.8
2018-10-19T16:58:19.295Z,12.3
2018-10-19T17:00:19.120Z,3.6
2018-10-19T17:02:18.912Z,4.9
2018-10-19T17:04:19.706Z,7.3
2018-10-19T17:06:19.418Z,4.2
2018-10-19T17:08:19.189Z,6.7
2018-10-19T17:10:19.455Z,8.1
2018-10-19T17:12:19.236Z,10.5
2018-10-19T17:14:19.009Z,11.1
2018-10-19T17:16:18.872Z,5.5
2018-10-19T17:18:18.734Z,6.7
2018-10-19T17:20:19.532Z,16.2
2018-10-19T17:22:19.304Z,9
2018-10-19T17:24:19.335Z,6.7
2018-10-19T17:26:19.658Z,4.8
2018-10-19T17:28:19.449Z,11.3
2018-10-19T17:30:19.561Z,21.9
2018-10-19T17:32:19.501Z,22.5
2018-10-19T17:34:19.289Z,19.3
2018-10-19T17:36:19.189Z,30.6
2018-10-19T17:38:18.981Z,33.1
2018-10-19T17:40:19.260Z,38.8
2018-10-19T17:42:19.032Z,50.7
2018-10-19T17:44:18.822Z,37.2
2018-10-19T17:46:19.631Z,22.4
2018-10-19T17:48:19.412Z,23.2
2018-10-19T17:50:19.279Z,24
2018-10-19T17:52:18.743Z,16.8
2018-10-19T17:54:19.639Z,16.2
2018-10-19T17:56:18.779Z,20.1
2018-10-19T17:58:19.536Z,11.4
2018-10-19T18:00:19.326Z,12.5
2018-10-19T18:02:19.105Z,10.6
2018-10-19T18:04:18.889Z,15.7
2018-10-19T18:06:18.800Z,17.2
2018-10-19T18:08:19.559Z,29
2018-10-19T18:10:18.847Z,16.9
2018-10-19T18:12:19.536Z,8.3
2018-10-19T18:14:19.337Z,4.6
2018-10-19T18:16:19.125Z,10.3
2018-10-19T18:18:18.968Z,8.6
2018-10-19T18:20:18.750Z,17.1
2018-10-19T18:22:20.507Z,23.6
2018-10-19T18:24:19.476Z,13.2
2018-10-19T18:26:18.707Z,19.6
2018-10-19T18:28:19.470Z,13.9
2018-10-19T18:30:19.240Z,7
2018-10-19T18:32:19.011Z,15.3
2018-10-19T18:34:18.791Z,9.3
2018-10-19T18:36:19.323Z,9.3
2018-10-19T18:38:19.110Z,6.4
2018-10-19T18:40:19.373Z,9.7
2018-10-19T18:42:19.441Z,9.3
2018-10-19T18:44:19.214Z,15.4
2018-10-19T18:46:18.840Z,16.4
2018-10-19T18:48:19.630Z,17.7
2018-10-19T18:50:19.760Z,14.3
2018-10-19T18:52:19.298Z,13.4
2018-10-19T18:54:19.070Z,21.9
2018-10-19T18:56:19.280Z,14.4
2018-10-19T18:58:19.084Z,17.9
2018-10-19T19:00:19.003Z,18.1
2018-10-19T19:02:18.793Z,14.1
2018-10-19T19:04:19.581Z,11.4
2018-10-19T19:06:19.039Z,14
2018-10-19T19:08:18.794Z,6.2
2018-10-19T19:10:19.041Z,9.2
2018-10-19T19:12:18.820Z,11.1
2018-10-19T19:14:19.589Z,8.9
2018-10-19T19:16:19.150Z,13.7
2018-10-19T19:18:19.040Z,15.5
2018-10-19T19:20:18.802Z,8.7
2018-10-19T19:22:19.590Z,9.2
2018-10-19T19:24:19.379Z,13
2018-10-19T19:26:19.006Z,12.3
2018-10-19T19:28:18.789Z,8.6
2018-10-19T19:30:19.686Z,11.4
2018-10-19T19:32:19.509Z,7
2018-10-19T19:34:19.312Z,16
2018-10-19T19:36:19.584Z,12.1
2018-10-19T19:38:19.350Z,13.4
2018-10-19T19:40:19.699Z,18.2
2018-10-19T19:42:19.481Z,14.8
2018-10-19T19:44:19.279Z,13.3
2018-10-19T19:46:18.856Z,13
2018-10-19T19:48:19.643Z,11
2018-10-19T19:50:19.418Z,16.1
2018-10-19T19:52:19.217Z,21
2018-10-19T19:54:18.982Z,13.5
2018-10-19T19:56:19.518Z,11.8
2018-10-19T19:58:19.291Z,17
2018-10-19T20:00:19.074Z,13.5
2018-10-19T20:02:18.831Z,19.2
2018-10-19T20:04:19.682Z,18.7
2018-10-19T20:06:19.552Z,10.6
2018-10-19T20:08:19.802Z,14.7
2018-10-19T20:10:19.112Z,7.4
2018-10-19T20:12:19.111Z,8.7
2018-10-19T20:14:18.937Z,20.2
2018-10-19T20:16:19.136Z,14.4
2018-10-19T20:18:19.287Z,12.9
2018-10-19T20:20:19.140Z,15.5
2018-10-19T20:22:18.907Z,12.6
2018-10-19T20:24:19.653Z,6.7
2018-10-19T20:26:19.393Z,7.1
2018-10-19T20:28:19.224Z,9.4
2018-10-19T20:30:19.007Z,9.9
2018-10-19T20:32:18.960Z,9
2018-10-19T20:34:18.821Z,11
2018-10-19T20:36:19.146Z,11.3
2018-10-19T20:38:18.925Z,14.7
2018-10-19T20:40:19.181Z,15.9
2018-10-19T20:42:18.939Z,14.7
2018-10-19T20:44:18.707Z,20.4
2018-10-19T20:46:19.372Z,14.1
2018-10-19T20:48:19.148Z,19.4
2018-10-19T20:50:18.924Z,19.6
2018-10-19T20:52:19.711Z,23.1
2018-10-19T20:54:19.479Z,18
2018-10-19T20:56:19.622Z,11.6
2018-10-19T20:58:19.390Z,16.3
2018-10-19T21:00:19.154Z,16.5
2018-10-19T21:02:18.922Z,22.3
2018-10-19T21:04:18.682Z,10.3
2018-10-19T21:06:19.387Z,15.1
2018-10-19T21:08:19.165Z,27.7
2018-10-19T21:10:19.414Z,11
2018-10-19T21:12:19.195Z,13.5
2018-10-19T21:14:18.962Z,16.5
2018-10-19T21:16:19.054Z,13.2
2018-10-19T21:18:18.900Z,13.4
2018-10-19T21:20:19.677Z,8.2
2018-10-19T21:22:19.428Z,8.6
2018-10-19T21:24:19.190Z,13.6
2018-10-19T21:26:19.231Z,6.7
2018-10-19T21:28:19.017Z,10.1
2018-10-19T21:30:18.804Z,9.6
2018-10-19T21:32:19.572Z,10.8
2018-10-19T21:34:19.323Z,7.4
2018-10-19T21:36:18.857Z,7.1
2018-10-19T21:38:19.617Z,12
2018-10-19T21:40:18.874Z,7.7
2018-10-19T21:42:19.645Z,15.4
2018-10-19T21:44:19.421Z,8.9
2018-10-19T21:46:19.508Z,4.8
2018-10-19T21:48:19.282Z,10.5
2018-10-19T21:50:19.043Z,8.2
2018-10-19T21:52:18.799Z,9.4
2018-10-19T21:54:19.571Z,12.2
2018-10-19T21:56:19.401Z,7.6
2018-10-19T21:58:19.164Z,10.6
2018-10-19T22:00:19.017Z,21.9
2018-10-19T22:02:18.812Z,12.9
2018-10-19T22:04:19.574Z,12.8
2018-10-19T22:06:18.834Z,7.8
2018-10-19T22:08:19.727Z,12.1
2018-10-19T22:10:18.947Z,14.2
2018-10-19T22:12:18.739Z,5.8
2018-10-19T22:14:19.483Z,16.8
2018-10-19T22:16:19.091Z,3.9
2018-10-19T22:18:18.935Z,9.6
2018-10-19T22:20:18.723Z,8.6
2018-10-19T22:22:19.469Z,4.6
2018-10-19T22:24:19.207Z,12.6
2018-10-19T22:26:19.779Z,10.6
2018-10-19T22:28:19.533Z,9.9
2018-10-19T22:30:19.340Z,6.1
2018-10-19T22:32:19.137Z,7.3
2018-10-19T22:34:18.924Z,11.1
2018-10-19T22:36:19.278Z,16.1
2018-10-19T22:38:19.039Z,8.5
2018-10-19T22:40:19.280Z,6.9
2018-10-19T22:42:19.074Z,4
2018-10-19T22:44:18.849Z,6.4
2018-10-19T22:46:19.000Z,10.9
2018-10-19T22:48:18.757Z,5.2
2018-10-19T22:50:19.592Z,10.5
2018-10-19T22:52:19.360Z,8.2
2018-10-19T22:54:19.129Z,5.1
2018-10-19T22:56:19.113Z,3
2018-10-19T22:58:18.872Z,18.5
2018-10-19T23:00:19.699Z,7
2018-10-19T23:02:19.469Z,12
2018-10-19T23:04:19.264Z,6.3
2018-10-19T23:06:19.670Z,7.5
2018-10-19T23:08:19.444Z,4.1
2018-10-19T23:10:18.759Z,3.3
2018-10-19T23:12:19.515Z,15.4
2018-10-19T23:14:19.296Z,6.7
2018-10-19T23:16:18.832Z,5
2018-10-19T23:18:19.677Z,9.1
2018-10-19T23:20:19.592Z,2.9
2018-10-19T23:22:19.000Z,9.4
2018-10-19T23:24:18.766Z,4.2
2018-10-19T23:26:19.488Z,7.7
2018-10-19T23:28:19.246Z,6
2018-10-19T23:30:18.997Z,6.5
2018-10-19T23:32:18.780Z,5.7
2018-10-19T23:34:19.536Z,3.2
2018-10-19T23:36:19.420Z,4.4
2018-10-19T23:38:19.173Z,6.3
2018-10-19T23:40:19.467Z,10.6
2018-10-19T23:42:19.114Z,3.8
2018-10-19T23:44:18.867Z,3.6
2018-10-19T23:46:19.517Z,7.5
2018-10-19T23:48:19.294Z,2.7
2018-10-19T23:50:19.079Z,5.7
2018-10-19T23:52:18.855Z,3.9
2018-10-19T23:54:19.635Z,5.6
2018-10-19T23:56:18.866Z,3.8
2018-10-19T23:58:19.626Z,6.2
